Canton, Massachusetts
Current Conditions -  °F | °C
As of 11:53 AM on Thursday 18 Dec 2014 (Local Time) from KOWD Reporting Station
Broken Clouds Broken Clouds  
Wind Chill: 34°   Ceiling: 3600
Heat Index: 42°   Visibility: 10mi
Dew Point: 28°   Wind: 17mph
Humidity: 58%   Direction: 290°WNW
Pressure: 29.78"   Gusts: 28mph
Location:  42.16°N, 71.14°W
Report Text: KOWD 181653Z 29015G24KT 10SM BKN036 06/M02 A2978 RMK AO2 SLP083 T00561022
Loading
Personal Weather Stations






























Interactive Weather Map New forecast layout! Learn more

10-Day Weather Forecast

Advertisements
Track Severe Weather on mobile